sensor_id;sensor_type;location;lat;lon;timestamp;P1;durP1;ratioP1;P2;durP2;ratioP2
61704;SDS011;47627;48.078;11.522;2023-05-10T00:17:10;1.50;;;1.27;;
61704;SDS011;47627;48.078;11.522;2023-05-10T00:19:35;2.03;;;1.10;;
61704;SDS011;47627;48.078;11.522;2023-05-10T00:22:00;2.30;;;1.40;;
61704;SDS011;47627;48.078;11.522;2023-05-10T00:24:25;1.50;;;1.05;;
61704;SDS011;47627;48.078;11.522;2023-05-10T00:26:51;1.77;;;1.13;;
61704;SDS011;47627;48.078;11.522;2023-05-10T00:29:16;1.67;;;1.10;;
61704;SDS011;47627;48.078;11.522;2023-05-10T00:31:41;2.17;;;1.30;;
61704;SDS011;47627;48.078;11.522;2023-05-10T00:34:06;1.30;;;1.10;;
61704;SDS011;47627;48.078;11.522;2023-05-10T00:36:32;1.52;;;1.10;;
61704;SDS011;47627;48.078;11.522;2023-05-10T02:54:11;0.77;;;0.57;;
61704;SDS011;47627;48.078;11.522;2023-05-10T02:56:39;1.10;;;0.95;;
61704;SDS011;47627;48.078;11.522;2023-05-10T04:36:17;2.30;;;0.68;;
61704;SDS011;47627;48.078;11.522;2023-05-10T04:38:43;2.63;;;0.85;;
61704;SDS011;47627;48.078;11.522;2023-05-10T04:41:09;4.47;;;0.52;;
61704;SDS011;47627;48.078;11.522;2023-05-10T04:43:35;1.50;;;0.60;;
61704;SDS011;47627;48.078;11.522;2023-05-10T04:46:00;2.97;;;0.30;;
61704;SDS011;47627;48.078;11.522;2023-05-10T11:20:15;1.02;;;0.50;;
61704;SDS011;47627;48.078;11.522;2023-05-10T11:22:51;4.97;;;0.77;;
61704;SDS011;47627;48.078;11.522;2023-05-10T11:25:16;1.33;;;0.68;;
61704;SDS011;47627;48.078;11.522;2023-05-10T12:00:33;5.30;;;1.00;;
61704;SDS011;47627;48.078;11.522;2023-05-10T12:02:59;5.45;;;0.90;;
61704;SDS011;47627;48.078;11.522;2023-05-10T12:05:25;4.43;;;1.00;;
61704;SDS011;47627;48.078;11.522;2023-05-10T16:25:41;4.68;;;1.30;;
61704;SDS011;47627;48.078;11.522;2023-05-10T16:28:06;2.38;;;1.50;;
61704;SDS011;47627;48.078;11.522;2023-05-10T16:30:31;3.63;;;1.75;;
61704;SDS011;47627;48.078;11.522;2023-05-10T16:32:57;1.90;;;1.45;;
61704;SDS011;47627;48.078;11.522;2023-05-10T16:35:22;2.80;;;1.50;;
61704;SDS011;47627;48.078;11.522;2023-05-10T16:43:11;3.05;;;1.38;;
61704;SDS011;47627;48.078;11.522;2023-05-10T16:45:36;3.47;;;1.48;;
61704;SDS011;47627;48.078;11.522;2023-05-10T17:01:24;3.88;;;1.50;;
61704;SDS011;47627;48.078;11.522;2023-05-10T17:03:50;2.88;;;1.20;;
61704;SDS011;47627;48.078;11.522;2023-05-10T17:06:15;1.90;;;1.20;;
61704;SDS011;47627;48.078;11.522;2023-05-10T17:08:40;2.00;;;0.90;;
61704;SDS011;47627;48.078;11.522;2023-05-10T17:11:06;2.05;;;0.93;;
61704;SDS011;47627;48.078;11.522;2023-05-10T17:13:31;3.28;;;0.88;;
61704;SDS011;47627;48.078;11.522;2023-05-10T17:15:56;3.13;;;0.85;;
61704;SDS011;47627;48.078;11.522;2023-05-10T17:18:21;1.60;;;0.80;;
61704;SDS011;47627;48.078;11.522;2023-05-10T17:20:47;1.45;;;0.82;;
61704;SDS011;47627;48.078;11.522;2023-05-10T17:23:12;2.10;;;0.90;;
61704;SDS011;47627;48.078;11.522;2023-05-10T17:25:38;2.90;;;1.27;;
61704;SDS011;47627;48.078;11.522;2023-05-10T17:28:03;2.95;;;1.15;;
61704;SDS011;47627;48.078;11.522;2023-05-10T17:30:28;2.47;;;1.00;;
61704;SDS011;47627;48.078;11.522;2023-05-10T17:32:57;1.17;;;0.90;;
61704;SDS011;47627;48.078;11.522;2023-05-10T17:35:22;3.13;;;1.20;;
61704;SDS011;47627;48.078;11.522;2023-05-10T17:37:48;1.58;;;1.17;;
61704;SDS011;47627;48.078;11.522;2023-05-10T17:40:13;3.78;;;1.10;;
61704;SDS011;47627;48.078;11.522;2023-05-10T17:42:38;2.75;;;1.10;;
61704;SDS011;47627;48.078;11.522;2023-05-10T17:45:04;3.00;;;1.40;;
61704;SDS011;47627;48.078;11.522;2023-05-10T17:50:11;2.38;;;1.10;;
61704;SDS011;47627;48.078;11.522;2023-05-10T17:52:36;3.60;;;1.20;;
61704;SDS011;47627;48.078;11.522;2023-05-10T17:55:01;1.75;;;0.90;;
61704;SDS011;47627;48.078;11.522;2023-05-10T17:57:27;3.00;;;1.13;;
61704;SDS011;47627;48.078;11.522;2023-05-10T17:59:52;3.67;;;1.17;;
61704;SDS011;47627;48.078;11.522;2023-05-10T18:02:17;1.45;;;1.08;;
61704;SDS011;47627;48.078;11.522;2023-05-10T18:04:43;3.83;;;1.40;;
61704;SDS011;47627;48.078;11.522;2023-05-10T18:07:08;3.13;;;1.70;;
61704;SDS011;47627;48.078;11.522;2023-05-10T18:09:33;4.63;;;2.20;;
61704;SDS011;47627;48.078;11.522;2023-05-10T18:12:00;4.13;;;2.20;;
61704;SDS011;47627;48.078;11.522;2023-05-10T18:14:25;2.10;;;1.48;;
61704;SDS011;47627;48.078;11.522;2023-05-10T18:16:52;3.00;;;1.60;;
61704;SDS011;47627;48.078;11.522;2023-05-10T20:09:59;2.50;;;1.40;;
61704;SDS011;47627;48.078;11.522;2023-05-10T20:12:24;2.15;;;1.35;;
61704;SDS011;47627;48.078;11.522;2023-05-10T20:14:49;3.15;;;1.67;;
61704;SDS011;47627;48.078;11.522;2023-05-10T20:17:15;3.80;;;1.33;;
61704;SDS011;47627;48.078;11.522;2023-05-10T21:27:10;2.63;;;1.25;;
61704;SDS011;47627;48.078;11.522;2023-05-10T21:32:17;1.42;;;1.27;;
61704;SDS011;47627;48.078;11.522;2023-05-10T21:34:42;1.58;;;1.02;;
61704;SDS011;47627;48.078;11.522;2023-05-10T21:37:07;1.27;;;0.85;;
61704;SDS011;47627;48.078;11.522;2023-05-10T21:39:32;2.97;;;1.70;;
61704;SDS011;47627;48.078;11.522;2023-05-10T21:41:57;2.80;;;1.15;;
61704;SDS011;47627;48.078;11.522;2023-05-10T21:44:24;1.35;;;1.25;;
61704;SDS011;47627;48.078;11.522;2023-05-10T21:46:49;2.42;;;1.02;;
